Time;durP1;ratioP1;P1;durP2;ratioP2;P2;SDS_P1;SDS_P2;PMS_P1;PMS_P2;Temp;Humidity;BMP_temperature;BMP_pressure;BME280_temperature;BME280_humidity;BME280_pressure;Samples;Min_cycle;Max_cycle;Signal;HPM_P1;HPM_P2
2023/01/07 00:01:19;;;;;;;3.70;2.97;;;8.00;99.90;;;;;;5039559;28;20043;-38
2023/01/07 00:03:47;;;;;;;4.05;3.10;;;7.90;99.90;;;;;;5041097;28;20032;-36
2023/01/07 00:06:21;;;;;;;4.10;2.92;;;7.90;99.90;;;;;;5043902;28;20124;-35
2023/01/07 00:08:50;;;;;;;3.80;3.05;;;7.90;99.90;;;;;;5046319;28;20576;-34
2023/01/07 00:11:18;;;;;;;3.85;2.58;;;7.90;99.90;;;;;;5040158;28;22037;-36
2023/01/07 00:13:45;;;;;;;3.65;3.10;;;7.90;99.90;;;;;;5040498;28;20081;-34
2023/01/07 00:16:13;;;;;;;3.35;2.85;;;7.90;99.90;;;;;;5043274;28;20041;-34
2023/01/07 00:18:40;;;;;;;3.25;2.95;;;8.00;99.90;;;;;;5051710;28;20197;-36
2023/01/07 00:21:08;;;;;;;3.97;3.00;;;8.00;99.90;;;;;;5058887;28;20122;-36
2023/01/07 00:23:34;;;;;;;;;;;8.00;99.90;;;;;;5050935;28;20071;-33
2023/01/07 00:26:06;;;;;;;4.55;2.55;;;8.00;99.90;;;;;;5044625;28;19913;-33
2023/01/07 00:28:34;;;;;;;3.47;3.00;;;8.00;99.90;;;;;;5044202;28;20024;-34
2023/01/07 00:31:01;;;;;;;4.17;2.53;;;8.10;99.90;;;;;;5045562;28;20036;-36
2023/01/07 00:33:29;;;;;;;4.05;2.40;;;8.00;99.90;;;;;;5043592;28;20387;-38
2023/01/07 00:36:03;;;;;;;3.95;2.83;;;7.90;99.90;;;;;;5043219;28;20783;-38
2023/01/07 00:38:29;;;;;;;5.78;2.85;;;7.90;99.90;;;;;;5045986;28;20379;-35
2023/01/07 00:40:56;;;;;;;3.40;2.80;;;8.00;99.90;;;;;;5043365;28;20077;-33
2023/01/07 00:43:22;;;;;;;4.40;3.00;;;8.00;99.90;;;;;;5041317;28;20723;-35
2023/01/07 00:45:47;;;;;;;3.50;2.70;;;8.00;99.90;;;;;;5038442;28;20039;-33
2023/01/07 00:48:14;;;;;;;3.95;2.67;;;7.90;99.90;;;;;;5039473;28;20120;-35
2023/01/07 00:50:40;;;;;;;3.03;2.70;;;7.80;99.90;;;;;;5040464;28;20056;-37
2023/01/07 00:53:06;;;;;;;3.50;2.60;;;7.80;99.90;;;;;;5037057;28;20033;-35
2023/01/07 00:55:32;;;;;;;3.30;2.72;;;7.90;99.90;;;;;;5033595;28;20036;-35
2023/01/07 00:57:58;;;;;;;3.17;2.60;;;7.90;99.90;;;;;;5051640;28;20028;-37
2023/01/07 01:00:25;;;;;;;3.22;2.72;;;7.90;99.90;;;;;;5058024;28;20032;-39
2023/01/07 01:02:51;;;;;;;3.90;2.63;;;7.90;99.90;;;;;;5060164;28;20050;-36
2023/01/07 01:05:17;;;;;;;2.65;2.00;;;7.90;99.90;;;;;;5052507;28;20029;-38
2023/01/07 01:07:43;;;;;;;2.60;2.17;;;7.90;99.90;;;;;;5052796;28;20050;-36
2023/01/07 01:10:13;;;;;;;2.65;2.15;;;7.90;99.90;;;;;;5060170;28;20021;-35
2023/01/07 01:12:39;;;;;;;4.75;2.28;;;7.90;99.90;;;;;;5049508;28;20603;-32
2023/01/07 01:15:08;;;;;;;5.05;2.78;;;7.90;99.90;;;;;;5051861;28;20041;-38
2023/01/07 01:17:34;;;;;;;2.67;2.40;;;7.90;99.90;;;;;;5063754;28;20081;-38
2023/01/07 01:20:00;;;;;;;3.33;2.38;;;7.90;99.90;;;;;;5056773;28;20112;-35
2023/01/07 01:22:26;;;;;;;2.50;2.30;;;7.90;99.90;;;;;;5064609;28;20035;-38
2023/01/07 01:24:52;;;;;;;2.30;2.13;;;7.90;99.90;;;;;;5061623;28;20035;-38
2023/01/07 01:27:18;;;;;;;3.85;2.35;;;7.90;99.90;;;;;;5065747;28;20032;-35
2023/01/07 01:29:44;;;;;;;2.78;2.42;;;7.90;99.90;;;;;;5064081;28;20556;-37
2023/01/07 01:32:10;;;;;;;2.55;1.90;;;7.90;99.90;;;;;;5059763;28;20040;-36
2023/01/07 01:34:35;;;;;;;2.33;2.13;;;7.90;99.90;;;;;;5062041;28;20043;-34
2023/01/07 01:37:01;;;;;;;5.40;2.03;;;7.90;99.90;;;;;;5060505;28;20024;-39
2023/01/07 01:39:27;;;;;;;2.40;2.15;;;7.90;99.90;;;;;;5065755;28;20033;-37
2023/01/07 01:41:52;;;;;;;2.85;2.25;;;7.80;99.90;;;;;;5062901;28;20033;-37
2023/01/07 01:44:36;;;;;;;2.40;2.20;;;7.90;99.90;;;;;;5067685;28;20116;-37
2023/01/07 01:47:07;;;;;;;4.25;2.13;;;8.00;99.90;;;;;;5063319;28;20016;-37
2023/01/07 01:49:40;;;;;;;1.75;1.63;;;8.00;99.90;;;;;;5056514;28;20486;-37
2023/01/07 01:52:14;;;;;;;1.95;1.77;;;8.00;99.90;;;;;;5055286;28;20024;-36
2023/01/07 01:54:49;;;;;;;2.80;2.10;;;8.00;99.90;;;;;;5060618;28;20741;-36
2023/01/07 01:57:17;;;;;;;2.65;2.28;;;8.00;99.90;;;;;;5066800;28;20384;-38
2023/01/07 01:59:47;;;;;;;3.42;2.13;;;7.90;99.90;;;;;;5074830;28;20033;-38
2023/01/07 02:02:17;;;;;;;2.28;1.98;;;7.90;99.90;;;;;;5060345;28;20041;-41
2023/01/07 02:04:43;;;;;;;2.25;1.92;;;7.90;99.90;;;;;;5056723;28;20064;-40
2023/01/07 02:07:13;;;;;;;2.58;1.95;;;7.70;99.90;;;;;;5050736;28;20020;-35
2023/01/07 02:09:39;;;;;;;2.58;2.20;;;7.70;99.90;;;;;;5055110;28;20051;-41
2023/01/07 02:12:46;;;;;;;3.10;1.95;;;7.70;99.90;;;;;;5063629;28;20029;-40
2023/01/07 02:15:16;;;;;;;1.85;1.75;;;7.70;99.90;;;;;;5015036;28;20585;-41
2023/01/07 02:18:08;;;;;;;2.10;2.00;;;7.80;99.90;;;;;;5068145;28;20030;-32
2023/01/07 02:20:45;;;;;;;1.90;1.58;;;7.80;99.90;;;;;;5064963;28;20790;-38
2023/01/07 02:23:44;;;;;;;1.67;1.50;;;7.80;99.90;;;;;;5065932;28;20039;-40
2023/01/07 02:26:31;;;;;;;2.85;1.70;;;7.70;99.90;;;;;;5062274;28;20056;-37
2023/01/07 02:29:15;;;;;;;1.52;1.42;;;7.70;99.90;;;;;;5066465;28;20021;-39
2023/01/07 02:32:21;;;;;;;2.08;1.88;;;7.70;99.90;;;;;;5060559;28;20040;-41
2023/01/07 02:35:04;;;;;;;2.88;1.60;;;7.70;99.90;;;;;;5061061;28;20035;-38
2023/01/07 02:37:58;;;;;;;1.90;1.80;;;7.60;99.90;;;;;;5063178;28;20060;-42
2023/01/07 02:40:34;;;;;;;2.10;2.00;;;7.70;99.90;;;;;;5064698;28;20454;-40
2023/01/07 02:43:22;;;;;;;2.67;2.42;;;7.60;99.90;;;;;;5060619;28;20024;-40
2023/01/07 02:46:10;;;;;;;2.55;2.22;;;7.60;99.90;;;;;;5061829;28;20094;-35
2023/01/07 02:48:37;;;;;;;3.45;2.10;;;7.60;99.90;;;;;;5070038;28;20028;-41
2023/01/07 02:51:03;;;;;;;2.83;2.28;;;7.60;99.90;;;;;;5063121;28;21206;-41
2023/01/07 02:53:30;;;;;;;3.20;1.83;;;7.60;99.90;;;;;;5068247;28;20031;-41
2023/01/07 02:56:18;;;;;;;2.05;1.90;;;7.60;99.90;;;;;;5060386;28;20452;-36
2023/01/07 02:59:08;;;;;;;1.70;1.60;;;7.60;99.90;;;;;;5066716;28;20035;-38
2023/01/07 03:01:36;;;;;;;1.73;1.42;;;7.50;99.90;;;;;;5056280;28;20044;-40
2023/01/07 03:04:20;;;;;;;1.50;1.35;;;7.50;99.90;;;;;;5067482;28;20102;-41
2023/01/07 03:07:04;;;;;;;2.83;2.10;;;7.60;99.90;;;;;;5061601;28;20024;-41
2023/01/07 03:09:36;;;;;;;2.28;2.00;;;7.60;99.90;;;;;;5067188;28;20029;-34
2023/01/07 03:12:29;;;;;;;5.57;2.08;;;7.60;99.90;;;;;;5064576;28;20024;-40
2023/01/07 03:15:04;;;;;;;2.03;1.80;;;7.60;99.90;;;;;;5059708;28;20060;-36
2023/01/07 03:17:35;;;;;;;1.70;1.60;;;7.50;99.90;;;;;;5067313;28;20101;-41
2023/01/07 03:20:04;;;;;;;1.77;1.67;;;7.50;99.90;;;;;;5069070;28;20036;-40
2023/01/07 03:22:33;;;;;;;3.72;1.88;;;7.40;99.90;;;;;;5062208;28;20039;-40
2023/01/07 03:25:00;;;;;;;1.60;1.48;;;7.40;99.90;;;;;;5057185;28;20025;-41
2023/01/07 03:27:29;;;;;;;3.20;1.50;;;7.50;99.90;;;;;;5061744;28;20029;-33
2023/01/07 03:29:55;;;;;;;1.15;1.13;;;7.50;99.90;;;;;;5066061;28;20390;-39
2023/01/07 03:32:23;;;;;;;1.63;1.52;;;7.40;99.90;;;;;;5066246;28;20379;-38
2023/01/07 03:34:50;;;;;;;2.70;1.77;;;7.40;99.90;;;;;;5064322;28;20406;-41
2023/01/07 03:37:19;;;;;;;1.75;1.50;;;7.40;99.90;;;;;;5061435;28;20625;-39
2023/01/07 03:39:46;;;;;;;1.60;1.50;;;7.40;99.90;;;;;;5066978;28;20426;-41
2023/01/07 03:44:58;;;;;;;1.45;1.35;;;7.40;99.90;;;;;;5054325;28;20178;-38
2023/01/07 03:47:26;;;;;;;1.83;1.45;;;7.40;99.90;;;;;;5057749;28;20028;-41
2023/01/07 03:49:52;;;;;;;2.13;1.52;;;7.50;99.90;;;;;;5062775;28;20100;-40
2023/01/07 03:52:17;;;;;;;1.50;1.40;;;7.50;99.90;;;;;;5053075;28;20166;-37
2023/01/07 03:54:43;;;;;;;1.33;1.33;;;7.50;99.90;;;;;;5054586;28;20037;-40
2023/01/07 03:57:08;;;;;;;1.40;1.30;;;7.50;99.90;;;;;;5064810;28;20077;-38
2023/01/07 03:59:34;;;;;;;1.50;1.40;;;7.40;99.90;;;;;;5067226;28;20040;-39
2023/01/07 04:02:00;;;;;;;1.23;1.23;;;7.40;99.90;;;;;;5063846;28;20036;-41
2023/01/07 04:04:25;;;;;;;1.60;1.50;;;7.50;99.90;;;;;;5067380;28;20024;-41
2023/01/07 04:06:51;;;;;;;3.47;1.92;;;7.50;99.90;;;;;;5063055;28;20024;-37
2023/01/07 04:09:20;;;;;;;2.53;1.98;;;7.50;99.90;;;;;;5064276;28;20052;-41
2023/01/07 04:11:46;;;;;;;2.55;1.77;;;7.50;99.90;;;;;;5066511;28;20114;-40
2023/01/07 04:14:12;;;;;;;3.25;1.88;;;7.50;99.90;;;;;;5062692;28;20673;-32
2023/01/07 04:16:38;;;;;;;3.70;1.52;;;7.50;99.90;;;;;;5061056;28;20048;-37
2023/01/07 04:19:03;;;;;;;2.10;1.90;;;7.50;99.90;;;;;;5067174;28;20028;-41
2023/01/07 04:21:29;;;;;;;1.88;1.77;;;7.50;99.90;;;;;;5055762;28;20036;-41
2023/01/07 04:23:54;;;;;;;1.83;1.70;;;7.40;99.90;;;;;;5058988;28;20033;-34
2023/01/07 04:26:20;;;;;;;2.60;2.10;;;7.40;99.90;;;;;;5059845;28;20542;-41
2023/01/07 04:28:46;;;;;;;2.42;2.00;;;7.40;99.90;;;;;;5068673;28;20112;-38
2023/01/07 04:31:11;;;;;;;2.80;2.25;;;7.40;99.90;;;;;;5054732;28;20774;-40
2023/01/07 04:33:37;;;;;;;2.55;2.35;;;7.40;99.90;;;;;;5071963;28;20744;-35
2023/01/07 04:36:03;;;;;;;2.50;2.17;;;7.40;99.90;;;;;;5059675;28;20540;-37
2023/01/07 04:38:28;;;;;;;2.85;2.17;;;7.30;99.90;;;;;;5064570;28;20028;-37
2023/01/07 04:40:54;;;;;;;4.03;2.17;;;7.30;99.90;;;;;;5064644;28;20027;-41
2023/01/07 04:43:20;;;;;;;2.55;2.35;;;7.30;99.90;;;;;;5067053;28;20100;-41
2023/01/07 04:45:45;;;;;;;3.42;2.63;;;7.40;99.90;;;;;;5063337;28;20173;-41
2023/01/07 04:48:11;;;;;;;3.53;2.83;;;7.30;99.90;;;;;;5067522;28;20074;-40
2023/01/07 04:50:36;;;;;;;4.38;2.83;;;7.30;99.90;;;;;;5057639;28;20024;-41
2023/01/07 04:53:02;;;;;;;4.28;3.17;;;7.40;99.90;;;;;;5065899;28;20032;-41
2023/01/07 04:55:28;;;;;;;5.45;3.60;;;7.40;99.90;;;;;;5062421;28;20068;-38
2023/01/07 04:57:53;;;;;;;5.70;3.60;;;7.40;99.90;;;;;;5060230;28;20054;-41
2023/01/07 05:00:19;;;;;;;4.80;3.80;;;7.40;99.90;;;;;;5065995;28;20036;-41
2023/01/07 05:02:45;;;;;;;4.03;3.72;;;7.30;99.90;;;;;;5068504;28;20047;-40
2023/01/07 05:05:10;;;;;;;4.72;3.80;;;7.40;99.90;;;;;;5057671;28;20509;-36
2023/01/07 05:07:36;;;;;;;5.95;3.85;;;7.40;99.90;;;;;;5058992;28;20024;-41
2023/01/07 05:10:02;;;;;;;5.10;4.13;;;7.40;99.90;;;;;;5065082;28;20029;-35
2023/01/07 05:12:28;;;;;;;5.85;3.40;;;7.30;99.90;;;;;;5066266;28;20029;-38
2023/01/07 05:14:53;;;;;;;4.97;3.83;;;7.30;99.90;;;;;;5054973;28;20051;-41
2023/01/07 05:17:19;;;;;;;4.88;3.63;;;7.30;99.90;;;;;;5061309;28;20040;-38
2023/01/07 05:19:44;;;;;;;5.95;3.58;;;7.30;99.90;;;;;;5062748;28;20128;-41
2023/01/07 05:22:10;;;;;;;4.57;3.33;;;7.30;99.90;;;;;;5064462;28;20031;-40
2023/01/07 05:24:35;;;;;;;4.82;3.35;;;7.30;99.90;;;;;;5056904;28;20477;-41
2023/01/07 05:27:01;;;;;;;5.20;3.70;;;7.20;99.90;;;;;;5060200;28;20031;-40
2023/01/07 05:29:26;;;;;;;5.75;4.30;;;7.20;99.90;;;;;;5066048;28;20059;-41
2023/01/07 05:31:52;;;;;;;4.80;3.60;;;7.30;99.90;;;;;;5058892;28;20156;-40
2023/01/07 05:34:18;;;;;;;4.70;3.90;;;7.30;99.90;;;;;;5064858;28;20039;-39
2023/01/07 05:36:43;;;;;;;5.20;3.97;;;7.20;99.90;;;;;;5057180;28;20039;-38
2023/01/07 05:39:09;;;;;;;7.22;4.38;;;7.20;99.90;;;;;;5058583;28;20452;-32
2023/01/07 05:41:34;;;;;;;5.28;3.58;;;7.20;99.90;;;;;;5060445;28;20032;-39
2023/01/07 05:44:00;;;;;;;6.70;4.45;;;7.20;99.90;;;;;;5054027;28;20421;-41
2023/01/07 05:46:26;;;;;;;4.57;3.67;;;7.30;99.90;;;;;;5053903;28;20021;-41
2023/01/07 05:48:53;;;;;;;4.63;3.65;;;7.30;99.90;;;;;;5063609;28;20390;-35
2023/01/07 05:51:19;;;;;;;5.15;4.00;;;7.30;99.90;;;;;;5059728;28;20059;-38
2023/01/07 05:53:44;;;;;;;4.95;3.60;;;7.30;99.90;;;;;;5061354;28;20028;-40
2023/01/07 05:56:10;;;;;;;7.45;3.90;;;7.30;99.90;;;;;;5055701;28;20113;-41
2023/01/07 05:58:35;;;;;;;5.05;3.70;;;7.20;99.90;;;;;;5064118;28;20025;-38
2023/01/07 06:01:01;;;;;;;7.70;5.10;;;7.20;99.90;;;;;;5055523;28;20037;-37
2023/01/07 06:03:27;;;;;;;6.60;4.53;;;7.20;99.90;;;;;;5066204;28;20034;-34
2023/01/07 06:05:52;;;;;;;5.60;3.88;;;7.20;99.90;;;;;;5056305;28;20424;-40
2023/01/07 06:08:18;;;;;;;5.50;3.97;;;7.20;99.90;;;;;;5060756;28;20060;-39
2023/01/07 06:10:43;;;;;;;5.78;4.00;;;7.30;99.90;;;;;;5062673;28;20027;-35
2023/01/07 06:13:09;;;;;;;5.93;3.83;;;7.30;99.90;;;;;;5069108;28;20501;-40
2023/01/07 06:15:35;;;;;;;5.30;3.92;;;7.20;99.90;;;;;;5053170;28;20549;-41
2023/01/07 06:18:00;;;;;;;5.03;3.50;;;7.20;99.90;;;;;;5064111;28;20032;-40
2023/01/07 06:20:28;;;;;;;4.28;3.70;;;7.10;99.90;;;;;;5056563;28;20078;-41
2023/01/07 06:22:54;;;;;;;3.93;3.23;;;7.10;99.90;;;;;;5061500;28;20039;-40
2023/01/07 06:25:19;;;;;;;5.10;3.78;;;7.20;99.90;;;;;;5055954;28;20279;-40
2023/01/07 06:27:45;;;;;;;5.18;3.45;;;7.20;99.90;;;;;;5059902;28;20039;-40
2023/01/07 06:30:11;;;;;;;3.97;3.20;;;7.20;99.90;;;;;;5057194;28;20439;-41
2023/01/07 06:32:41;;;;;;;4.65;3.42;;;7.20;99.90;;;;;;5058855;28;20040;-34
2023/01/07 06:35:09;;;;;;;5.40;3.38;;;7.10;99.90;;;;;;5060697;28;20057;-38
2023/01/07 06:37:35;;;;;;;5.65;3.00;;;7.20;99.90;;;;;;5061594;28;20476;-41
2023/01/07 06:40:00;;;;;;;4.95;3.03;;;7.20;99.90;;;;;;5057418;28;20048;-37
2023/01/07 06:42:26;;;;;;;4.82;3.13;;;7.10;99.90;;;;;;5061728;28;20083;-40
2023/01/07 06:44:52;;;;;;;4.30;3.40;;;7.10;99.90;;;;;;5055848;28;20116;-39
2023/01/07 06:47:17;;;;;;;4.35;3.47;;;7.10;99.90;;;;;;5054329;28;20516;-37
2023/01/07 06:49:43;;;;;;;6.13;3.38;;;7.00;99.90;;;;;;5041951;28;20826;-35
2023/01/07 06:52:08;;;;;;;4.90;2.85;;;7.10;99.90;;;;;;5037397;28;20437;-34
2023/01/07 06:54:34;;;;;;;5.40;3.08;;;7.10;99.90;;;;;;5042001;28;20754;-37
2023/01/07 06:57:00;;;;;;;5.40;3.10;;;7.00;99.90;;;;;;5036904;28;20036;-33
2023/01/07 06:59:25;;;;;;;4.57;3.45;;;7.00;99.90;;;;;;5044683;28;20039;-36
2023/01/07 07:01:51;;;;;;;3.63;2.88;;;7.00;99.90;;;;;;5054633;28;20562;-40
2023/01/07 07:04:16;;;;;;;5.18;3.90;;;7.00;99.90;;;;;;5054236;28;20059;-38
2023/01/07 07:06:42;;;;;;;6.22;3.22;;;6.90;99.90;;;;;;5061045;28;20046;-38
2023/01/07 07:09:08;;;;;;;3.80;2.92;;;7.00;99.90;;;;;;5065447;28;20404;-33
2023/01/07 07:11:33;;;;;;;4.88;3.50;;;7.00;99.90;;;;;;5061820;28;20033;-40
2023/01/07 07:14:00;;;;;;;4.75;3.05;;;7.00;99.90;;;;;;5063569;28;20655;-41
2023/01/07 07:16:25;;;;;;;4.18;2.97;;;7.00;99.90;;;;;;5056938;28;20086;-39
2023/01/07 07:18:52;;;;;;;4.55;3.35;;;6.90;99.90;;;;;;5050863;28;20033;-36
2023/01/07 07:21:18;;;;;;;3.47;2.80;;;6.80;99.90;;;;;;5051201;28;20040;-33
2023/01/07 07:23:43;;;;;;;4.63;2.95;;;6.80;99.90;;;;;;5056067;28;20759;-37
2023/01/07 07:26:09;;;;;;;5.32;3.30;;;6.80;99.90;;;;;;5055283;28;20024;-36
2023/01/07 07:28:35;;;;;;;7.28;3.20;;;6.80;99.90;;;;;;5064953;28;20394;-40
2023/01/07 07:31:00;;;;;;;3.03;2.60;;;6.80;99.90;;;;;;5060237;28;20037;-41
2023/01/07 07:33:26;;;;;;;4.30;3.20;;;6.70;99.90;;;;;;5056780;28;20025;-37
2023/01/07 07:35:53;;;;;;;3.60;3.05;;;6.70;99.90;;;;;;5058342;28;20033;-38
2023/01/07 07:38:18;;;;;;;4.15;2.90;;;6.70;99.90;;;;;;5066584;28;20055;-41
2023/01/07 07:40:45;;;;;;;3.60;3.03;;;6.70;99.90;;;;;;5060441;28;20025;-42
2023/01/07 07:43:11;;;;;;;4.90;3.53;;;6.60;99.90;;;;;;5067915;28;20051;-41
2023/01/07 07:45:36;;;;;;;2.90;2.50;;;6.60;99.90;;;;;;5068187;28;20370;-34
2023/01/07 07:48:05;;;;;;;5.05;3.15;;;6.60;99.90;;;;;;5056600;28;20049;-39
2023/01/07 07:50:30;;;;;;;3.55;2.80;;;6.40;99.90;;;;;;5057483;28;20067;-41
2023/01/07 07:52:56;;;;;;;4.80;3.28;;;6.00;99.90;;;;;;5064707;28;20049;-37
2023/01/07 07:55:21;;;;;;;5.03;3.10;;;6.00;99.90;;;;;;5057411;28;20040;-39
2023/01/07 07:57:47;;;;;;;4.55;3.15;;;6.10;99.90;;;;;;5056353;28;20101;-35
2023/01/07 08:00:13;;;;;;;7.03;2.97;;;6.10;99.90;;;;;;5054281;28;20043;-37
2023/01/07 08:02:38;;;;;;;3.65;2.83;;;6.20;99.90;;;;;;5052544;28;20032;-36
2023/01/07 08:05:05;;;;;;;4.70;3.13;;;6.30;99.90;;;;;;5050245;28;20574;-36
2023/01/07 08:07:30;;;;;;;3.90;2.80;;;6.30;99.90;;;;;;5058719;28;20042;-41
2023/01/07 08:09:56;;;;;;;3.28;2.70;;;6.30;99.90;;;;;;5054093;28;20029;-34
2023/01/07 08:12:21;;;;;;;3.42;2.83;;;6.40;99.90;;;;;;5053608;28;20398;-37
2023/01/07 08:14:47;;;;;;;4.45;3.22;;;6.40;99.90;;;;;;5054528;28;21175;-38
2023/01/07 08:17:12;;;;;;;4.57;3.47;;;6.40;99.90;;;;;;5054986;28;20067;-34
2023/01/07 08:19:38;;;;;;;5.40;3.78;;;6.40;99.90;;;;;;5051748;28;20033;-40
2023/01/07 08:22:04;;;;;;;6.10;3.80;;;6.40;99.90;;;;;;5051563;28;20188;-39
2023/01/07 08:24:29;;;;;;;4.43;3.35;;;6.40;99.90;;;;;;5060866;28;20024;-39
2023/01/07 08:26:55;;;;;;;6.15;4.25;;;6.30;99.90;;;;;;5058972;28;21559;-41
2023/01/07 08:29:22;;;;;;;5.45;4.25;;;6.30;99.90;;;;;;5054106;28;20446;-34
2023/01/07 08:31:48;;;;;;;7.35;3.88;;;6.40;99.90;;;;;;5055487;28;20414;-38
2023/01/07 08:34:14;;;;;;;6.18;4.25;;;6.40;99.90;;;;;;5063462;28;20027;-39
2023/01/07 08:36:39;;;;;;;7.90;4.50;;;6.40;99.90;;;;;;5061247;28;20029;-39
2023/01/07 08:39:05;;;;;;;6.55;4.90;;;6.40;99.90;;;;;;5062098;28;20028;-35
2023/01/07 08:41:31;;;;;;;8.35;4.78;;;6.40;99.90;;;;;;5058445;28;20481;-39
2023/01/07 08:43:56;;;;;;;6.97;4.88;;;6.40;99.90;;;;;;5062846;28;20028;-39
2023/01/07 08:46:22;;;;;;;6.55;5.30;;;6.50;99.90;;;;;;5059614;28;20020;-32
2023/01/07 08:48:47;;;;;;;7.35;5.35;;;6.50;99.90;;;;;;5063269;28;20664;-37
2023/01/07 08:51:13;;;;;;;6.10;4.97;;;6.50;99.90;;;;;;5062236;28;20044;-33
2023/01/07 08:53:39;;;;;;;6.72;4.90;;;6.50;99.90;;;;;;5062079;28;20024;-42
2023/01/07 08:56:05;;;;;;;6.82;4.65;;;6.50;99.90;;;;;;5067980;28;20036;-39
2023/01/07 08:58:30;;;;;;;5.55;4.43;;;6.60;99.90;;;;;;5062125;28;20194;-40
2023/01/07 09:01:04;;;;;;;7.43;4.50;;;6.70;99.90;;;;;;5055966;28;20039;-42
2023/01/07 09:03:30;;;;;;;6.82;4.78;;;6.80;99.90;;;;;;5042494;28;20442;-38
2023/01/07 09:05:55;;;;;;;5.75;4.38;;;6.90;99.90;;;;;;5045137;28;20112;-40
2023/01/07 09:08:21;;;;;;;5.53;4.10;;;7.00;99.90;;;;;;5037132;28;20031;-37
2023/01/07 09:10:47;;;;;;;6.18;4.47;;;7.00;99.90;;;;;;5041119;28;20037;-40
2023/01/07 09:13:12;;;;;;;5.60;4.43;;;6.90;99.90;;;;;;5044183;28;20068;-41
2023/01/07 09:15:38;;;;;;;5.88;4.68;;;7.00;99.90;;;;;;5042491;28;20083;-39
2023/01/07 09:18:05;;;;;;;4.70;3.70;;;7.10;99.90;;;;;;5041411;28;20040;-36
2023/01/07 09:20:31;;;;;;;5.45;3.92;;;7.20;99.90;;;;;;5022341;28;20065;-37
2023/01/07 09:22:57;;;;;;;4.75;3.75;;;7.30;99.90;;;;;;5039241;28;20040;-36
2023/01/07 09:25:22;;;;;;;4.65;3.50;;;7.30;99.90;;;;;;5040594;28;20465;-40
2023/01/07 09:27:48;;;;;;;4.85;3.85;;;7.40;99.90;;;;;;5041907;28;20371;-38
2023/01/07 09:30:14;;;;;;;6.30;4.40;;;7.40;99.90;;;;;;5038466;28;20119;-40
2023/01/07 09:32:41;;;;;;;5.28;3.97;;;7.30;99.90;;;;;;5041965;28;20426;-35
2023/01/07 09:35:07;;;;;;;5.10;4.22;;;7.20;99.90;;;;;;5041220;28;20040;-41
2023/01/07 09:37:33;;;;;;;4.53;4.10;;;7.30;99.90;;;;;;5042833;28;20506;-40
2023/01/07 09:40:02;;;;;;;4.22;3.35;;;7.20;99.90;;;;;;5047789;28;20041;-38
2023/01/07 09:42:31;;;;;;;6.20;4.10;;;7.20;99.90;;;;;;5042874;28;20513;-38
2023/01/07 09:44:56;;;;;;;;;;;7.30;99.90;;;;;;5041418;28;20852;-38
2023/01/07 09:47:24;;;;;;;6.45;3.70;;;7.30;99.90;;;;;;5040841;28;19939;-37
2023/01/07 09:49:54;;;;;;;5.25;3.38;;;7.30;99.90;;;;;;5032818;28;20032;-38
2023/01/07 09:52:36;;;;;;;5.35;3.47;;;7.30;99.90;;;;;;5040061;28;20052;-33
2023/01/07 09:55:25;;;;;;;4.03;3.17;;;7.30;99.90;;;;;;5035025;28;20036;-38
2023/01/07 09:57:51;;;;;;;3.53;2.92;;;7.40;99.90;;;;;;5032543;28;20521;-34
2023/01/07 10:00:21;;;;;;;3.88;3.00;;;7.50;99.90;;;;;;5035788;28;20036;-38
2023/01/07 10:03:11;;;;;;;3.42;3.13;;;7.50;99.90;;;;;;5035260;28;20507;-39
2023/01/07 10:06:16;;;;;;;4.60;2.92;;;7.50;99.90;;;;;;5036428;28;20645;-37
2023/01/07 10:08:55;;;;;;;3.55;2.42;;;7.60;99.90;;;;;;5037026;28;20057;-40
2023/01/07 10:11:48;;;;;;;3.20;2.40;;;7.60;99.90;;;;;;5043903;28;20056;-38
2023/01/07 10:14:51;;;;;;;2.83;2.53;;;7.60;99.90;;;;;;5044887;28;20109;-41
2023/01/07 10:17:20;;;;;;;2.63;2.40;;;7.70;99.90;;;;;;5042190;28;20267;-38
2023/01/07 10:20:08;;;;;;;1.85;1.75;;;7.80;99.90;;;;;;5040279;28;20024;-38
2023/01/07 10:22:38;;;;;;;2.60;2.33;;;8.00;99.90;;;;;;5038420;28;20033;-39
2023/01/07 10:25:36;;;;;;;2.70;2.47;;;7.90;99.90;;;;;;5036871;28;20163;-36
2023/01/07 10:28:08;;;;;;;3.67;2.83;;;8.00;99.90;;;;;;5023163;28;20608;-38
2023/01/07 10:30:41;;;;;;;3.08;2.78;;;8.00;99.90;;;;;;5042687;28;20029;-42
2023/01/07 10:33:27;;;;;;;4.55;2.97;;;8.10;99.90;;;;;;5058950;28;20393;-41
2023/01/07 10:36:13;;;;;;;2.60;2.40;;;8.00;99.90;;;;;;5057947;28;20085;-36
2023/01/07 10:38:43;;;;;;;3.70;2.70;;;8.00;99.90;;;;;;5060638;28;20081;-41
2023/01/07 10:41:40;;;;;;;2.45;2.10;;;8.10;99.90;;;;;;5066862;28;20381;-35
2023/01/07 10:44:23;;;;;;;3.90;2.85;;;8.20;99.90;;;;;;5060106;28;20455;-40
2023/01/07 10:47:09;;;;;;;10.57;6.47;;;8.30;99.90;;;;;;5062507;28;20501;-40
2023/01/07 10:50:06;;;;;;;9.45;5.00;;;8.20;99.90;;;;;;5056666;28;20104;-39
2023/01/07 10:52:58;;;;;;;3.20;2.60;;;8.20;99.90;;;;;;5057581;28;20024;-38
2023/01/07 10:55:46;;;;;;;2.55;2.30;;;8.20;99.90;;;;;;5061389;28;20029;-40
2023/01/07 10:58:11;;;;;;;4.22;3.92;;;8.20;99.90;;;;;;5062092;28;20063;-41
2023/01/07 11:00:40;;;;;;;2.60;2.30;;;8.20;99.90;;;;;;5060021;28;20618;-39
2023/01/07 11:03:19;;;;;;;3.00;1.98;;;8.30;99.90;;;;;;5062806;28;20036;-38
2023/01/07 11:05:47;;;;;;;2.38;2.15;;;8.30;99.90;;;;;;5065249;28;20032;-40
2023/01/07 11:08:29;;;;;;;2.88;2.58;;;8.30;99.90;;;;;;5060603;28;20038;-40
2023/01/07 11:10:55;;;;;;;3.80;3.17;;;8.40;99.90;;;;;;5051425;28;20168;-34
2023/01/07 11:13:26;;;;;;;2.70;2.50;;;8.50;99.90;;;;;;5058499;28;20028;-37
2023/01/07 11:16:16;;;;;;;2.38;2.17;;;8.50;99.90;;;;;;5064923;28;20032;-35
2023/01/07 11:18:53;;;;;;;3.97;3.30;;;8.70;99.90;;;;;;5060977;28;20417;-35
2023/01/07 11:21:39;;;;;;;3.47;3.15;;;8.60;99.90;;;;;;5057565;28;20429;-39
2023/01/07 11:24:23;;;;;;;4.05;3.08;;;8.70;99.90;;;;;;5068436;28;20029;-38
2023/01/07 11:26:49;;;;;;;2.92;2.10;;;8.60;99.90;;;;;;5061973;28;20458;-37
2023/01/07 11:29:21;;;;;;;3.25;2.63;;;8.60;99.90;;;;;;5065702;28;20103;-34
2023/01/07 11:32:04;;;;;;;2.60;2.25;;;8.60;99.90;;;;;;5065089;28;20080;-41
2023/01/07 11:34:47;;;;;;;3.22;2.85;;;8.60;99.90;;;;;;5064835;28;20032;-34
2023/01/07 11:37:33;;;;;;;4.10;3.65;;;8.70;99.90;;;;;;5065019;28;20031;-40
2023/01/07 11:40:01;;;;;;;2.90;2.10;;;8.80;99.90;;;;;;5063904;28;20064;-38
2023/01/07 11:42:37;;;;;;;2.95;2.30;;;8.70;99.90;;;;;;5064674;28;20158;-37
2023/01/07 11:45:26;;;;;;;2.08;1.88;;;8.70;99.90;;;;;;5066454;28;20052;-39
2023/01/07 11:48:03;;;;;;;13.45;10.20;;;8.70;99.90;;;;;;5063430;28;20513;-40
2023/01/07 11:50:41;;;;;;;13.35;9.25;;;8.70;99.90;;;;;;5061305;28;20397;-35
2023/01/07 11:53:12;;;;;;;3.22;2.90;;;8.80;99.90;;;;;;5064285;28;20028;-41
2023/01/07 11:55:39;;;;;;;3.60;2.83;;;8.70;99.90;;;;;;5066106;28;20517;-39
2023/01/07 11:58:05;;;;;;;2.50;2.30;;;8.60;99.90;;;;;;5064258;28;20036;-41
2023/01/07 12:00:32;;;;;;;3.10;2.45;;;8.60;99.90;;;;;;5062966;28;20470;-40
2023/01/07 12:03:11;;;;;;;6.22;3.13;;;8.60;99.90;;;;;;5039858;28;20043;-38
2023/01/07 12:05:38;;;;;;;6.18;4.85;;;8.60;99.90;;;;;;5036273;28;20036;-41
2023/01/07 12:08:04;;;;;;;3.03;2.70;;;8.60;99.90;;;;;;5035348;28;20033;-41
2023/01/07 12:10:38;;;;;;;2.92;2.63;;;8.60;99.90;;;;;;5037372;28;20022;-37
2023/01/07 12:13:15;;;;;;;5.70;5.20;;;8.60;99.90;;;;;;5038497;28;20020;-40
2023/01/07 12:15:50;;;;;;;7.63;4.95;;;8.80;99.90;;;;;;5037002;28;20040;-40
2023/01/07 12:18:54;;;;;;;3.20;2.78;;;8.90;99.90;;;;;;5038715;28;20123;-39
2023/01/07 12:21:48;;;;;;;2.50;2.10;;;8.80;99.90;;;;;;5040673;28;20029;-38
2023/01/07 12:24:22;;;;;;;2.10;1.90;;;8.80;99.90;;;;;;5048415;28;20572;-38
2023/01/07 12:27:12;;;;;;;5.35;3.92;;;8.80;99.90;;;;;;5036635;28;20025;-39
2023/01/07 12:29:57;;;;;;;100.97;52.75;;;8.80;99.90;;;;;;5045682;28;20039;-37
2023/01/07 12:32:43;;;;;;;7.30;5.47;;;8.90;99.90;;;;;;5036685;28;20407;-39
2023/01/07 12:35:23;;;;;;;3.28;2.97;;;8.90;99.90;;;;;;5034996;28;20382;-41
2023/01/07 12:37:56;;;;;;;4.32;3.13;;;8.90;99.90;;;;;;5035259;28;20376;-41
2023/01/07 12:40:21;;;;;;;39.75;24.85;;;9.10;99.90;;;;;;5044950;28;20045;-38
2023/01/07 12:42:57;;;;;;;19.25;16.90;;;9.10;99.90;;;;;;5035541;28;20486;-41
2023/01/07 12:45:32;;;;;;;17.30;6.93;;;9.20;99.90;;;;;;5040007;28;20099;-39
2023/01/07 12:48:02;;;;;;;118.47;61.15;;;9.20;99.90;;;;;;5038462;28;20035;-39
2023/01/07 12:50:39;;;;;;;21.25;12.38;;;9.20;99.90;;;;;;5029158;28;20029;-36
2023/01/07 12:53:31;;;;;;;3.50;2.65;;;9.10;99.90;;;;;;5032012;28;20078;-39
2023/01/07 12:56:10;;;;;;;3.55;2.78;;;9.30;99.90;;;;;;5033041;28;20425;-39
2023/01/07 12:58:49;;;;;;;2.72;2.30;;;9.20;99.90;;;;;;5032870;28;20125;-39
2023/01/07 13:01:28;;;;;;;2.88;2.28;;;9.20;99.90;;;;;;5035146;28;20091;-38
2023/01/07 13:03:56;;;;;;;4.10;2.30;;;9.20;99.90;;;;;;5033591;28;20032;-39
2023/01/07 13:06:42;;;;;;;;;;;9.10;99.90;;;;;;5029527;28;20498;-34
2023/01/07 13:09:13;;;;;;;1.67;1.48;;;9.10;99.90;;;;;;5031298;28;19917;-37
2023/01/07 13:14:44;;;;;;;2.45;1.80;;;9.20;99.90;;;;;;5034063;28;20040;-34
2023/01/07 13:17:26;;;;;;;1.95;1.77;;;9.40;99.90;;;;;;5032523;28;20118;-38
2023/01/07 13:19:52;;;;;;;1.90;1.77;;;9.50;99.90;;;;;;5035231;28;20441;-38
2023/01/07 13:22:36;;;;;;;2.08;1.98;;;9.50;99.90;;;;;;5030652;28;20056;-38